createdAt,value
2023-02-04T00:01:50.565Z,99968.63
2023-02-04T00:04:18.350Z,99979.91
2023-02-04T00:06:45.878Z,99977.09
2023-02-04T00:09:13.802Z,99986.94
2023-02-04T00:11:41.266Z,99982.56
2023-02-04T00:14:09.259Z,99993.06
2023-02-04T00:16:36.845Z,99995.56
2023-02-04T00:19:04.970Z,100000.88
2023-02-04T00:21:32.696Z,100004.97
2023-02-04T00:24:00.455Z,100025.31
2023-02-04T00:26:28.133Z,100027.66
2023-02-04T00:28:56.440Z,100036.63
2023-02-04T00:31:24.138Z,100039.59
2023-02-04T00:33:52.094Z,100050.25
2023-02-04T00:36:19.683Z,100047.28
2023-02-04T00:38:47.583Z,100051.50
2023-02-04T00:41:15.115Z,100069.03
2023-02-04T00:43:42.937Z,100049.16
2023-02-04T00:46:11.041Z,100046.97
2023-02-04T00:48:38.913Z,100056.19
2023-02-04T00:51:06.578Z,100045.06
2023-02-04T00:53:34.494Z,100038.16
2023-02-04T00:56:02.062Z,100063.25
2023-02-04T00:58:29.968Z,100038.47
2023-02-04T01:00:57.491Z,100044.91
2023-02-04T01:03:25.314Z,100048.19
2023-02-04T01:05:53.060Z,100056.19
2023-02-04T01:08:21.245Z,100042.56
2023-02-04T01:10:48.922Z,100040.84
2023-02-04T01:13:16.945Z,100040.38
2023-02-04T01:15:44.492Z,100044.59
2023-02-04T01:18:13.008Z,100034.56
2023-02-04T01:20:40.443Z,100033.97
2023-02-04T01:23:09.166Z,100020.94
2023-02-04T01:25:36.936Z,100031.28
2023-02-04T01:28:04.995Z,100009.84
2023-02-04T01:30:32.947Z,100008.41
2023-02-04T01:33:01.006Z,100002.00
2023-02-04T01:35:30.430Z,100024.38
2023-02-04T01:37:58.314Z,100016.09
2023-02-04T01:40:26.105Z,99995.25
2023-02-04T01:42:55.337Z,100010.91
2023-02-04T01:45:25.042Z,100001.03
2023-02-04T01:47:52.930Z,100004.66
2023-02-04T01:50:20.568Z,100011.84
2023-02-04T01:52:48.734Z,100002.00
2023-02-04T01:55:22.461Z,100014.03
2023-02-04T01:57:53.116Z,100027.66
2023-02-04T02:00:33.380Z,100035.00
2023-02-04T02:03:03.348Z,100017.59
2023-02-04T02:05:46.602Z,100009.00
2023-02-04T02:08:15.749Z,100043.13
2023-02-04T02:10:47.269Z,100010.41
2023-02-04T02:13:19.402Z,100020.09
2023-02-04T02:15:48.178Z,100013.69
2023-02-04T02:18:16.534Z,100001.94
2023-02-04T02:20:45.551Z,100005.53
2023-02-04T02:23:54.891Z,100002.53
2023-02-04T02:26:23.767Z,100019.91
2023-02-04T02:28:52.100Z,100016.44
2023-02-04T02:31:22.506Z,100028.66
2023-02-04T02:33:51.573Z,99994.84
2023-02-04T02:36:19.989Z,100010.03
2023-02-04T02:38:47.970Z,99996.41
2023-02-04T02:41:15.464Z,99989.34
2023-02-04T02:43:43.208Z,99990.13
2023-02-04T02:46:10.784Z,99972.47
2023-02-04T02:48:38.649Z,99982.97
2023-02-04T02:51:06.237Z,99985.03
2023-02-04T02:53:34.172Z,99992.81
2023-02-04T02:56:04.776Z,99998.41
2023-02-04T02:58:36.550Z,99993.75
2023-02-04T03:01:07.585Z,99997.66
2023-02-04T03:03:51.979Z,99974.53
2023-02-04T03:06:26.289Z,99985.13
2023-02-04T03:08:56.969Z,99980.44
2023-02-04T03:11:26.306Z,99978.25
2023-02-04T03:13:54.755Z,99975.44
2023-02-04T03:16:22.400Z,99974.84
2023-02-04T03:18:50.935Z,99982.47
2023-02-04T03:21:18.490Z,99976.38
2023-02-04T03:23:46.451Z,99987.31
2023-02-04T03:26:14.443Z,99992.31
2023-02-04T03:28:43.369Z,99992.31
2023-02-04T03:31:11.181Z,99981.53
2023-02-04T03:33:39.206Z,99981.63
2023-02-04T03:36:07.467Z,99995.88
2023-02-04T03:38:35.383Z,99985.25
2023-02-04T03:41:03.379Z,99977.41
2023-02-04T03:43:33.643Z,99986.50
2023-02-04T03:46:01.586Z,99968.38
2023-02-04T03:48:29.425Z,99992.94
2023-02-04T03:50:57.003Z,99987.28
2023-02-04T03:53:24.887Z,99971.34
2023-02-04T03:55:52.365Z,99961.66
2023-02-04T03:58:20.256Z,99966.84
2023-02-04T04:00:47.773Z,99971.66
2023-02-04T04:03:15.826Z,99971.03
2023-02-04T04:05:43.457Z,99959.31
2023-02-04T04:08:11.207Z,99987.13
2023-02-04T04:10:39.767Z,99968.38
2023-02-04T04:13:08.505Z,99959.75
2023-02-04T04:15:36.153Z,99965.25
2023-02-04T04:18:04.840Z,99961.03
2023-02-04T04:20:32.587Z,99946.50
2023-02-04T04:23:01.026Z,99952.59
2023-02-04T04:25:28.751Z,99949.31
2023-02-04T04:27:56.619Z,99949.34
2023-02-04T04:30:24.237Z,99950.41
2023-02-04T04:32:52.342Z,99945.41
2023-02-04T04:35:19.967Z,99943.22
2023-02-04T04:37:47.771Z,99947.44
2023-02-04T04:40:15.319Z,99954.19
2023-02-04T04:42:43.204Z,99961.53
2023-02-04T04:45:13.206Z,99946.97
2023-02-04T04:47:41.058Z,99944.16
2023-02-04T04:50:09.088Z,99965.75
2023-02-04T04:52:37.857Z,99958.06
2023-02-04T04:55:06.567Z,99946.66
2023-02-04T04:57:34.883Z,99962.00
2023-02-04T05:00:03.024Z,99956.19
2023-02-04T05:02:30.802Z,99979.66
2023-02-04T05:04:58.540Z,99972.16
2023-02-04T05:07:26.545Z,99962.44
2023-02-04T05:09:54.438Z,99975.56
2023-02-04T05:12:22.433Z,99995.16
2023-02-04T05:14:49.923Z,99969.69
2023-02-04T05:17:18.302Z,99982.69
2023-02-04T05:19:45.816Z,99969.72
2023-02-04T05:22:13.686Z,99984.44
2023-02-04T05:24:41.164Z,99975.78
2023-02-04T05:27:09.091Z,99976.41
2023-02-04T05:29:36.594Z,99963.09
2023-02-04T05:32:04.718Z,99970.75
2023-02-04T05:34:32.354Z,99959.97
2023-02-04T05:37:00.139Z,99949.19
2023-02-04T05:39:28.785Z,99952.47
2023-02-04T05:41:56.704Z,99949.78
2023-02-04T05:44:25.458Z,99953.13
2023-02-04T05:46:54.062Z,99958.72
2023-02-04T05:49:21.623Z,99948.88
2023-02-04T05:51:49.501Z,99953.88
2023-02-04T05:54:19.577Z,99958.75
2023-02-04T05:56:48.205Z,99971.91
2023-02-04T05:59:15.911Z,99963.31
2023-02-04T06:01:44.248Z,99952.00
2023-02-04T06:04:11.950Z,99966.13
2023-02-04T06:06:39.846Z,99970.47
2023-02-04T06:09:07.435Z,99968.94
2023-02-04T06:11:35.256Z,99962.03
2023-02-04T06:14:02.940Z,99967.19
2023-02-04T06:16:30.855Z,99967.34
2023-02-04T06:18:58.529Z,99982.00
2023-02-04T06:21:26.462Z,99966.97
2023-02-04T06:23:54.010Z,100016.41
2023-02-04T06:26:21.949Z,99973.03
2023-02-04T06:28:49.533Z,99967.88
2023-02-04T06:31:17.556Z,100007.91
2023-02-04T06:33:45.181Z,99965.34
2023-02-04T06:36:13.110Z,99953.78
2023-02-04T06:38:41.579Z,99966.63
2023-02-04T06:41:09.524Z,99977.78
2023-02-04T06:43:37.041Z,99963.53
2023-02-04T06:46:05.097Z,99961.81
2023-02-04T06:48:32.726Z,99970.13
2023-02-04T06:51:00.997Z,99961.03
2023-02-04T06:53:28.560Z,99964.94
2023-02-04T06:55:56.471Z,99975.28
2023-02-04T06:58:24.100Z,99980.59
2023-02-04T07:00:52.192Z,99983.28
2023-02-04T07:03:19.914Z,99970.56
2023-02-04T07:05:47.785Z,99971.03
2023-02-04T07:08:15.261Z,99992.59
2023-02-04T07:10:43.038Z,99986.97
2023-02-04T07:13:10.563Z,100002.59
2023-02-04T07:15:38.397Z,100002.31
2023-02-04T07:18:05.926Z,100003.19
2023-02-04T07:20:34.143Z,99991.94
2023-02-04T07:23:02.166Z,99986.03
2023-02-04T07:25:29.964Z,99986.81
2023-02-04T07:27:59.463Z,100005.84
2023-02-04T07:30:27.294Z,99996.28
2023-02-04T07:32:54.696Z,99999.09
2023-02-04T07:35:22.626Z,100023.38
2023-02-04T07:37:50.396Z,100014.00
2023-02-04T07:40:18.532Z,100000.81
2023-02-04T07:42:45.895Z,100001.97
2023-02-04T07:45:18.485Z,99998.47
2023-02-04T07:47:46.294Z,99999.88
2023-02-04T07:50:14.385Z,100006.69
2023-02-04T07:52:42.264Z,99994.81
2023-02-04T07:55:10.526Z,100005.44
2023-02-04T07:57:37.973Z,100007.75
2023-02-04T08:00:07.301Z,100005.00
2023-02-04T08:02:42.011Z,99999.69
2023-02-04T08:05:10.248Z,100007.84
2023-02-04T08:07:37.897Z,99997.63
2023-02-04T08:10:07.546Z,99992.69
2023-02-04T08:12:35.175Z,99990.97
2023-02-04T08:15:03.229Z,99991.13
2023-02-04T08:17:30.786Z,99992.72
2023-02-04T08:19:58.682Z,99977.53
2023-02-04T08:22:26.489Z,99983.03
2023-02-04T08:24:54.339Z,99981.13
2023-02-04T08:27:21.800Z,99984.31
2023-02-04T08:29:49.899Z,99980.22
2023-02-04T08:32:32.582Z,99974.13
2023-02-04T08:35:21.084Z,99974.44
2023-02-04T08:37:48.651Z,99974.59
2023-02-04T08:40:20.587Z,99977.63
2023-02-04T08:42:48.130Z,99971.34
2023-02-04T08:45:16.243Z,99972.09
2023-02-04T08:47:43.766Z,99961.16
2023-02-04T08:50:11.989Z,99960.25
2023-02-04T08:52:39.517Z,99962.28
2023-02-04T08:55:08.118Z,99962.88
2023-02-04T08:57:35.619Z,99959.09
2023-02-04T09:00:04.505Z,99966.91
2023-02-04T09:02:32.119Z,99974.00
2023-02-04T09:05:00.007Z,99956.50
2023-02-04T09:07:27.478Z,99967.75
2023-02-04T09:09:57.464Z,99960.41
2023-02-04T09:12:29.689Z,99947.25
2023-02-04T09:14:57.620Z,99943.50
2023-02-04T09:17:25.646Z,99956.97
2023-02-04T09:19:56.390Z,99972.94
2023-02-04T09:22:24.205Z,100092.19
2023-02-04T09:24:52.599Z,100074.81
2023-02-04T09:27:20.224Z,100053.03
2023-02-04T09:29:48.143Z,100042.34
2023-02-04T09:32:15.736Z,100031.47
2023-02-04T09:34:43.596Z,100047.84
2023-02-04T09:37:11.548Z,100021.53
2023-02-04T09:39:39.248Z,100015.38
2023-02-04T09:42:07.445Z,100016.31
2023-02-04T09:44:35.315Z,100023.00
2023-02-04T09:47:03.026Z,100014.63
2023-02-04T09:49:32.194Z,100011.16
2023-02-04T09:51:59.788Z,100040.03
2023-02-04T09:54:27.593Z,100003.00
2023-02-04T09:56:55.091Z,100027.84
2023-02-04T09:59:27.661Z,100004.69
2023-02-04T10:02:03.331Z,100002.75
2023-02-04T10:04:31.760Z,100008.91
2023-02-04T10:06:59.804Z,99998.63
2023-02-04T10:09:27.871Z,100011.34
2023-02-04T10:11:55.428Z,100004.03
2023-02-04T10:14:24.500Z,100033.50
2023-02-04T10:16:59.465Z,100016.59
2023-02-04T10:19:30.829Z,100019.13
2023-02-04T10:21:58.942Z,100022.09
2023-02-04T10:24:30.340Z,100015.03
2023-02-04T10:27:12.731Z,100040.09
2023-02-04T10:29:42.420Z,100011.03
2023-02-04T10:32:32.657Z,100014.75
2023-02-04T10:35:02.660Z,100023.25
2023-02-04T10:37:31.908Z,100035.00
2023-02-04T10:39:59.634Z,100033.38
2023-02-04T10:42:30.535Z,100027.59
2023-02-04T10:44:59.054Z,100028.34
2023-02-04T10:47:31.247Z,100026.50
2023-02-04T10:50:19.312Z,100050.50
2023-02-04T10:52:55.544Z,100032.78
2023-02-04T10:55:24.728Z,100041.50
2023-02-04T10:57:53.905Z,100053.69
2023-02-04T11:00:46.600Z,100064.44
2023-02-04T11:03:25.211Z,100049.19
2023-02-04T11:05:56.992Z,100080.25
2023-02-04T11:08:36.949Z,100088.28
2023-02-04T11:11:15.689Z,100075.13
2023-02-04T11:13:50.482Z,100076.88
2023-02-04T11:16:19.014Z,100117.19
2023-02-04T11:18:57.603Z,100092.47
2023-02-04T11:21:33.212Z,100109.16
2023-02-04T11:24:17.374Z,100109.28
2023-02-04T11:27:10.555Z,100109.56
2023-02-04T11:29:39.411Z,100135.16
2023-02-04T11:32:28.392Z,100135.19
2023-02-04T11:35:38.910Z,100161.31
2023-02-04T11:38:40.968Z,100157.41
2023-02-04T11:42:13.519Z,100160.38
2023-02-04T11:45:17.067Z,100159.59
2023-02-04T11:47:46.326Z,100181.69
2023-02-04T11:50:33.158Z,100155.75
2023-02-04T11:53:02.316Z,100165.88
2023-02-04T11:55:35.403Z,100176.88
2023-02-04T11:58:03.373Z,100186.13
2023-02-04T12:00:33.542Z,100155.84
2023-02-04T12:03:20.792Z,100156.63
2023-02-04T12:05:49.805Z,100184.53
2023-02-04T12:08:23.769Z,100177.44
2023-02-04T12:11:11.375Z,100171.84
2023-02-04T12:13:56.623Z,100171.84
2023-02-04T12:16:25.616Z,100180.59
2023-02-04T12:20:08.131Z,100202.53
2023-02-04T12:23:10.522Z,100203.38
2023-02-04T12:25:39.055Z,100211.72
2023-02-04T12:28:08.152Z,100199.47
2023-02-04T12:30:36.276Z,100216.16
2023-02-04T12:33:04.304Z,100205.34
2023-02-04T12:35:31.986Z,100221.84
2023-02-04T12:38:00.112Z,100229.13
2023-02-04T12:40:28.005Z,100246.38
2023-02-04T12:42:55.948Z,100223.59
2023-02-04T12:45:23.456Z,100216.81
2023-02-04T12:47:51.351Z,100229.75
2023-02-04T12:50:22.857Z,100236.88
2023-02-04T12:52:57.041Z,100226.00
2023-02-04T12:55:27.838Z,100240.44
2023-02-04T12:57:56.480Z,100241.72
2023-02-04T13:00:24.611Z,100255.41
2023-02-04T13:02:52.430Z,100257.34
2023-02-04T13:05:20.010Z,100265.97
2023-02-04T13:07:47.836Z,100286.13
2023-02-04T13:10:15.484Z,100255.06
2023-02-04T13:12:43.310Z,100252.81
2023-02-04T13:15:11.500Z,100263.63
2023-02-04T13:17:39.326Z,100272.28
2023-02-04T13:20:07.562Z,100266.78
2023-02-04T13:22:35.465Z,100283.50
2023-02-04T13:25:04.166Z,100287.47
2023-02-04T13:27:32.161Z,100278.75
2023-02-04T13:29:59.672Z,100279.00
2023-02-04T13:32:27.529Z,100279.84
2023-02-04T13:34:55.043Z,100294.25
2023-02-04T13:37:23.004Z,100301.69
2023-02-04T13:39:50.519Z,100291.72
2023-02-04T13:42:18.478Z,100304.84
2023-02-04T13:44:46.011Z,100303.16
2023-02-04T13:47:13.833Z,100318.31
2023-02-04T13:49:41.364Z,100329.00
2023-02-04T13:52:09.167Z,100338.53
2023-02-04T13:54:36.878Z,100343.50
2023-02-04T13:57:05.935Z,100339.78
2023-02-04T13:59:33.421Z,100348.72
2023-02-04T14:02:02.393Z,100362.13
2023-02-04T14:04:29.908Z,100376.44
2023-02-04T14:06:57.798Z,100398.59
2023-02-04T14:09:25.680Z,100380.06
2023-02-04T14:11:53.520Z,100390.16
2023-02-04T14:14:21.007Z,100409.69
2023-02-04T14:16:48.939Z,100406.78
2023-02-04T14:19:17.179Z,100417.84
2023-02-04T14:21:46.466Z,100420.81
2023-02-04T14:24:14.087Z,100433.00
2023-02-04T14:26:41.976Z,100432.69
2023-02-04T14:29:11.315Z,100440.00
2023-02-04T14:31:39.054Z,100438.69
2023-02-04T14:34:06.522Z,100443.47
2023-02-04T14:36:34.460Z,100448.22
2023-02-04T14:39:02.104Z,100463.47
2023-02-04T14:41:31.304Z,100466.09
2023-02-04T14:43:58.860Z,100488.03
2023-02-04T14:46:26.707Z,100487.75
2023-02-04T14:48:54.700Z,100490.16
2023-02-04T14:51:22.586Z,100505.22
2023-02-04T14:53:50.927Z,100515.81
2023-02-04T14:56:19.487Z,100518.97
2023-02-04T14:58:47.149Z,100550.53
2023-02-04T15:01:15.653Z,100555.09
2023-02-04T15:03:43.141Z,100556.91
2023-02-04T15:06:10.952Z,100578.34
2023-02-04T15:08:39.040Z,100561.59
2023-02-04T15:11:07.400Z,100562.66
2023-02-04T15:13:34.824Z,100594.16
2023-02-04T15:16:05.427Z,100598.41
2023-02-04T15:18:33.156Z,100602.13
2023-02-04T15:21:01.331Z,100619.09
2023-02-04T15:23:28.902Z,100632.31
2023-02-04T15:25:57.684Z,100639.72
2023-02-04T15:28:25.514Z,100650.13
2023-02-04T15:30:53.668Z,100656.75
2023-02-04T15:33:21.248Z,100644.09
2023-02-04T15:35:49.023Z,100667.94
2023-02-04T15:38:16.572Z,100670.31
2023-02-04T15:40:44.604Z,100662.63
2023-02-04T15:43:12.161Z,100672.19
2023-02-04T15:45:43.767Z,100680.09
2023-02-04T15:48:12.115Z,100689.66
2023-02-04T15:50:40.309Z,100686.78
2023-02-04T15:53:07.773Z,100689.44
2023-02-04T15:55:36.908Z,100697.09
2023-02-04T15:58:04.883Z,100693.44
2023-02-04T16:00:33.631Z,100698.19
2023-02-04T16:03:01.419Z,100724.66
2023-02-04T16:05:30.200Z,100718.28
2023-02-04T16:07:58.043Z,100735.22
2023-02-04T16:10:26.214Z,100752.41
2023-02-04T16:12:58.898Z,100762.22
2023-02-04T16:15:27.197Z,100774.91
2023-02-04T16:17:56.968Z,100789.16
2023-02-04T16:20:24.891Z,100777.53
2023-02-04T16:22:52.644Z,100784.44
2023-02-04T16:25:20.540Z,100798.16
2023-02-04T16:27:48.203Z,100805.56
2023-02-04T16:30:16.548Z,100807.94
2023-02-04T16:32:44.175Z,100824.41
2023-02-04T16:35:12.064Z,100829.97
2023-02-04T16:37:39.554Z,100850.88
2023-02-04T16:40:08.246Z,100853.53
2023-02-04T16:42:36.556Z,100877.63
2023-02-04T16:45:04.818Z,100879.72
2023-02-04T16:47:32.396Z,100884.75
2023-02-04T16:50:01.124Z,100902.22
2023-02-04T16:52:29.773Z,100911.44
2023-02-04T16:54:59.175Z,100898.22
2023-02-04T16:57:26.907Z,100898.78
2023-02-04T16:59:54.797Z,100909.34
2023-02-04T17:02:22.799Z,100907.22
2023-02-04T17:04:50.727Z,100914.66
2023-02-04T17:07:18.760Z,100927.88
2023-02-04T17:09:46.610Z,100917.03
2023-02-04T17:12:14.211Z,100926.78
2023-02-04T17:14:42.038Z,100945.56
2023-02-04T17:17:09.476Z,100953.75
2023-02-04T17:19:37.320Z,100960.13
2023-02-04T17:22:05.127Z,100966.22
2023-02-04T17:24:32.875Z,100978.13
2023-02-04T17:27:03.403Z,100982.34
2023-02-04T17:29:31.471Z,100985.53
2023-02-04T17:31:59.721Z,100982.34
2023-02-04T17:34:28.662Z,100983.94
2023-02-04T17:36:58.956Z,101002.22
2023-02-04T17:39:26.769Z,100992.16
2023-02-04T17:41:54.963Z,101009.28
2023-02-04T17:44:26.713Z,101028.81
2023-02-04T17:46:55.191Z,101005.50
2023-02-04T17:49:23.029Z,100995.44
2023-02-04T17:51:50.623Z,101015.53
2023-02-04T17:54:18.490Z,101021.88
2023-02-04T17:56:47.213Z,101019.78
2023-02-04T17:59:14.979Z,101025.88
2023-02-04T18:01:44.075Z,101023.22
2023-02-04T18:04:15.007Z,101036.72
2023-02-04T18:06:42.567Z,101035.16
2023-02-04T18:09:18.051Z,101019.28
2023-02-04T18:11:46.017Z,101031.72
2023-02-04T18:14:24.902Z,101041.22
2023-02-04T18:16:59.673Z,101042.06
2023-02-04T18:19:37.075Z,101053.19
2023-02-04T18:22:15.824Z,101048.44
2023-02-04T18:24:48.716Z,101057.09
2023-02-04T18:27:24.543Z,101046.81
2023-02-04T18:29:55.861Z,101070.84
2023-02-04T18:32:37.134Z,101082.50
2023-02-04T18:35:48.107Z,101063.75
2023-02-04T18:38:23.282Z,101068.50
2023-02-04T18:41:21.881Z,101075.88
2023-02-04T18:44:02.637Z,101086.41
2023-02-04T18:46:36.705Z,101066.31
2023-02-04T18:49:32.676Z,101074.16
2023-02-04T18:52:20.566Z,101081.06
2023-02-04T18:54:59.101Z,101075.22
2023-02-04T18:57:39.339Z,101071.81
2023-02-04T19:00:09.747Z,101100.31
2023-02-04T19:02:42.555Z,101078.59
2023-02-04T19:05:49.112Z,101081.78
2023-02-04T19:08:23.701Z,101086.81
2023-02-04T19:10:57.190Z,101097.09
2023-02-04T19:13:41.873Z,101086.25
2023-02-04T19:16:24.424Z,101100.44
2023-02-04T19:18:54.956Z,101098.81
2023-02-04T19:21:30.024Z,101103.81
2023-02-04T19:24:14.392Z,101111.50
2023-02-04T19:27:26.410Z,101126.81
2023-02-04T19:29:56.275Z,101115.75
2023-02-04T19:32:40.265Z,101122.56
2023-02-04T19:35:26.134Z,101139.22
2023-02-04T19:38:02.559Z,101147.41
2023-02-04T19:40:37.307Z,101174.59
2023-02-04T19:43:36.388Z,101157.47
2023-02-04T19:46:36.850Z,101159.84
2023-02-04T19:49:22.652Z,101171.47
2023-02-04T19:51:57.577Z,101173.38
2023-02-04T19:54:38.579Z,101186.53
2023-02-04T19:57:24.299Z,101185.53
2023-02-04T19:59:56.689Z,101200.84
2023-02-04T20:02:38.919Z,101193.44
2023-02-04T20:05:20.607Z,101218.78
2023-02-04T20:07:48.420Z,101241.19
2023-02-04T20:10:27.980Z,101228.63
2023-02-04T20:13:18.234Z,101222.31
2023-02-04T20:15:45.938Z,101233.97
2023-02-04T20:18:20.096Z,101221.78
2023-02-04T20:20:47.736Z,101241.78
2023-02-04T20:23:30.212Z,101233.84
2023-02-04T20:25:59.441Z,101248.56
2023-02-04T20:28:35.962Z,101246.94
2023-02-04T20:31:41.371Z,101255.94
2023-02-04T20:34:36.214Z,101259.59
2023-02-04T20:37:06.326Z,101252.88
2023-02-04T20:39:41.159Z,101249.47
2023-02-04T20:42:34.472Z,101246.84
2023-02-04T20:45:26.225Z,101253.72
2023-02-04T20:48:02.236Z,101251.03
2023-02-04T20:50:43.846Z,101245.81
2023-02-04T20:53:38.759Z,101260.91
2023-02-04T20:56:29.688Z,101260.63
2023-02-04T20:59:12.559Z,101263.06
2023-02-04T21:01:50.812Z,101266.72
2023-02-04T21:04:32.392Z,101270.41
2023-02-04T21:07:08.620Z,101276.31
2023-02-04T21:09:37.579Z,101263.06
2023-02-04T21:12:05.749Z,101273.09
2023-02-04T21:14:34.198Z,101282.03
2023-02-04T21:17:02.818Z,101276.25
2023-02-04T21:19:30.701Z,101274.75
2023-02-04T21:21:59.404Z,101305.16
2023-02-04T21:24:28.440Z,101282.50
2023-02-04T21:26:56.248Z,101286.69
2023-02-04T21:29:24.141Z,101277.47
2023-02-04T21:31:52.826Z,101290.97
2023-02-04T21:34:20.754Z,101302.59
2023-02-04T21:36:49.067Z,101295.09
2023-02-04T21:39:35.953Z,101286.94
2023-02-04T21:42:14.059Z,101295.63
2023-02-04T21:44:41.839Z,101296.72
2023-02-04T21:47:09.803Z,101321.34
2023-02-04T21:49:40.221Z,101296.53
2023-02-04T21:52:10.096Z,101298.91
2023-02-04T21:54:38.016Z,101292.06
2023-02-04T21:57:06.095Z,101288.53
2023-02-04T21:59:34.135Z,101309.34
2023-02-04T22:02:02.725Z,101286.41
2023-02-04T22:04:30.369Z,101284.72
2023-02-04T22:06:58.383Z,101290.47
2023-02-04T22:09:26.104Z,101276.34
2023-02-04T22:11:53.977Z,101281.16
2023-02-04T22:14:40.506Z,101266.34
2023-02-04T22:17:08.490Z,101276.13
2023-02-04T22:19:36.163Z,101278.03
2023-02-04T22:22:04.375Z,101266.34
2023-02-04T22:24:32.057Z,101265.34
2023-02-04T22:27:00.466Z,101279.06
2023-02-04T22:29:30.011Z,101273.63
2023-02-04T22:31:57.941Z,101263.16
2023-02-04T22:34:26.131Z,101266.34
2023-02-04T22:36:54.480Z,101284.66
2023-02-04T22:39:22.223Z,101264.03
2023-02-04T22:41:50.200Z,101282.03
2023-02-04T22:44:17.939Z,101271.56
2023-02-04T22:46:47.546Z,101259.50
2023-02-04T22:49:15.236Z,101272.69
2023-02-04T22:51:43.276Z,101259.50
2023-02-04T22:54:11.419Z,101292.88
2023-02-04T22:56:39.176Z,101265.34
2023-02-04T22:59:06.776Z,101274.81
2023-02-04T23:01:34.656Z,101284.91
2023-02-04T23:04:02.843Z,101279.63
2023-02-04T23:06:30.948Z,101287.22
2023-02-04T23:08:58.608Z,101278.81
2023-02-04T23:11:26.576Z,101278.81
2023-02-04T23:13:54.296Z,101297.84
2023-02-04T23:16:22.461Z,101295.13
2023-02-04T23:18:50.050Z,101278.91
2023-02-04T23:21:18.106Z,101280.59
2023-02-04T23:23:45.678Z,101284.09
2023-02-04T23:26:14.458Z,101274.34
2023-02-04T23:28:42.321Z,101292.06
2023-02-04T23:31:10.804Z,101291.97
2023-02-04T23:33:38.439Z,101298.34
2023-02-04T23:36:07.387Z,101297.03
2023-02-04T23:38:34.917Z,101294.88
2023-02-04T23:41:02.868Z,101294.63
2023-02-04T23:43:30.357Z,101299.25
2023-02-04T23:46:00.175Z,101306.59
2023-02-04T23:48:27.953Z,101318.41
2023-02-04T23:50:58.036Z,101308.66
2023-02-04T23:53:25.651Z,101312.59
2023-02-04T23:55:53.700Z,101317.09
2023-02-04T23:58:21.511Z,101323.03
